August 11, 2022

Time Code Weather Temp. Visibility Ceiling Wind METAR/SPECI
02:00
V
19 °C 10 km+ 4,100 ft 140° 140° 16 kt METAR FMEE 102200Z AUTO 14016KT 9999 SCT034/// BKN041/// BKN058/// 19/15 Q1024 TEMPO 14020G30KT
01:30
V
18 °C 10 km+ 4,900 ft 160° 160° 14 kt METAR FMEE 102130Z AUTO 16014KT 9999 FEW035/// SCT043/// BKN049/// 18/15 Q1024 TEMPO 14020G30KT
01:00
M
18 °C 7 km 3,400 ft 140° 140° 22 - 32 kt METAR FMEE 102100Z AUTO 14022G32KT 7000 -RA BKN034/// BKN058/// 18/15 Q1024 NOSIG
00:30
V
19 °C 10 km+ 5,000 ft 150° 150° 22 kt METAR FMEE 102030Z AUTO 15022KT 9999 BKN050/// BKN062/// 19/14 Q1024 TEMPO 14020G30KT
00:00
V
20 °C 10 km+ - 140° 140° 15 kt METAR FMEE 102000Z AUTO 14015KT 9999 FEW062/// 20/12 Q1024 TEMPO 14020G30KT

August 10, 2022

Time Code Weather Temp. Visibility Ceiling Wind METAR/SPECI
23:30
V
20 °C 10 km+ - 140° 140° 17 kt METAR FMEE 101930Z AUTO 14017KT 9999 FEW056/// 20/12 Q1024 TEMPO 14020G30KT
23:00
V
20 °C 10 km+ - 150° 150° 17 kt METAR FMEE 101900Z AUTO 15017KT 9999 FEW046/// 20/13 Q1024 TEMPO 14020G30KT
22:30
V
20 °C 10 km+ - 150° 150° 17 kt METAR FMEE 101830Z AUTO 15017KT 9999 SCT054/// 20/13 Q1024 TEMPO 14020G30KT
22:00
V
20 °C 10 km+ - 140° 140° 19 kt METAR FMEE 101800Z AUTO 14019KT 9999 SCT054/// 20/13 Q1024 TEMPO 14020G30KT
21:30
V
20 °C 10 km+ 5,400 ft 150° 150° 20 kt METAR FMEE 101730Z AUTO 15020KT 9999 BKN054/// 20/13 Q1024 NOSIG
21:00
V
20 °C 10 km+ - 140° 140° 22 kt METAR FMEE 101700Z AUTO 14022KT 9999 SCT056/// 20/13 Q1024 NOSIG
20:30
V
20 °C 10 km+ 5,600 ft 140° 140° 20 kt METAR FMEE 101630Z AUTO 14020KT 9999 BKN056/// 20/13 Q1023 NOSIG
20:00
V
20 °C 10 km+ - 130° 130° 17 kt METAR FMEE 101600Z AUTO 13017KT 9999 SCT056/// 20/13 Q1023 NOSIG
19:30
V
21 °C 10 km+ - 150° 150° 19 kt METAR FMEE 101530Z AUTO 15019KT 9999 FEW052/// 21/11 Q1023 NOSIG
19:00
V
21 °C 10 km+ - 150° 150° 19 kt METAR FMEE 101500Z AUTO 15019KT 9999 NCD 21/11 Q1023 NOSIG
18:30
V
21 °C 10 km+ - 140° 140° 20 kt METAR FMEE 101430Z AUTO 14020KT 9999 FEW054/// 21/11 Q1022 NOSIG
18:00
V
21 °C 10 km+ - 150° 150° 20 kt METAR FMEE 101400Z AUTO 15020KT 9999 FEW054/// 21/11 Q1022 NOSIG
17:30
V
22 °C 10 km+ - 140° 140° 18 kt METAR FMEE 101330Z AUTO 14018KT 9999 NCD 22/11 Q1022 NOSIG
17:00
V
22 °C 10 km+ - 140° 140° 25 kt METAR FMEE 101300Z AUTO 14025KT 9999 NCD 22/12 Q1022 NOSIG
16:30
V
22 °C 10 km+ - 120° 120° 26 kt METAR FMEE 101230Z AUTO 12026KT 9999 NCD 22/11 Q1022 NOSIG
16:00
V
23 °C 10 km+ - 130° 130° 23 - 34 kt METAR FMEE 101200Z AUTO 13023G34KT 9999 NCD 23/11 Q1021 BECMG 13025KT
15:30
V
23 °C 10 km+ - 130° 130° 25 kt METAR FMEE 101130Z AUTO 13025KT 9999 NCD 23/12 Q1021 NOSIG
15:00
V
23 °C 10 km+ - 130° 130° 25 kt METAR FMEE 101100Z AUTO 13025KT 9999 NCD 23/12 Q1021 BECMG 13025G37KT
14:30
V
24 °C 10 km+ - 130° 130° 25 - 37 kt METAR FMEE 101030Z AUTO 13025G37KT 9999 NCD 24/10 Q1021 NOSIG
14:00
V
24 °C 10 km+ - 130° 130° 24 kt METAR FMEE 101000Z AUTO 13024KT 9999 NCD 24/12 Q1022 BECMG 13025G37KT
13:30
V
23 °C 10 km+ - 140° 140° 29 kt METAR FMEE 100930Z AUTO 14029KT 9999 NCD 23/11 Q1022 BECMG 13025G37KT
13:00
V
24 °C 10 km+ - 120° 120° 23 kt METAR FMEE 100900Z AUTO 12023KT 9999 NCD 24/11 Q1022 BECMG 13025G37KT
12:30
V
23 °C 10 km+ - 120° 120° 27 kt METAR FMEE 100830Z AUTO 12027KT 9999 NCD 23/11 Q1023 BECMG 13025G37KT
12:00
V
24 °C 10 km+ - 130° 130° 27 kt METAR FMEE 100800Z AUTO 13027KT 9999 NCD 24/12 Q1023 BECMG 13025G37KT
11:30
V
24 °C 10 km+ - 130° 130° 25 - 37 kt METAR FMEE 100730Z AUTO 13025G37KT 9999 NCD 24/10 Q1023 NOSIG
11:00
V
23 °C 10 km+ - 120° 120° 28 kt METAR FMEE 100700Z AUTO 12028KT 9999 NCD 23/11 Q1023 BECMG 10020G30KT
10:30
V
23 °C 10 km+ - 140° 140° 21 kt METAR FMEE 100630Z AUTO 14021KT 9999 NCD 23/11 Q1024 BECMG 10020G30KT
10:00
V
21 °C 10 km+ - 130° 130° 23 kt METAR FMEE 100600Z AUTO 13023KT 9999 NCD 21/13 Q1024 BECMG 10020G30KT
09:30
V
21 °C 10 km+ - 130° 130° 22 kt METAR FMEE 100530Z AUTO 13022KT 9999 NCD 21/14 Q1024 BECMG 10020G30KT
09:00
V
21 °C 10 km+ - 140° 140° 22 kt METAR FMEE 100500Z AUTO 14022KT 9999 NCD 21/13 Q1024 BECMG 12025G35KT
08:30
V
21 °C 10 km+ - 140° 140° 15 kt METAR FMEE 100430Z AUTO 14015KT 9999 FEW056/// 21/12 Q1024 BECMG 12025G35KT
08:00
V
19 °C 10 km+ - 140° 140° 12 kt METAR FMEE 100400Z AUTO 14012KT 9999 NCD 19/11 Q1024 BECMG 12025G35KT
07:30
V
19 °C 10 km+ - 140° 140° 13 kt METAR FMEE 100330Z AUTO 14013KT 9999 NCD 19/11 Q1024 BECMG 12025G35KT
07:00
V
18 °C 10 km+ - 150° 150° 14 kt METAR FMEE 100300Z AUTO 15014KT 9999 FEW054/// 18/12 Q1023 BECMG 12025G35KT
06:30
V
19 °C 10 km+ - 150° 150° 12 kt METAR FMEE 100230Z AUTO 15012KT 9999 SCT050/// 19/12 Q1023 BECMG 12025G35KT
06:00
V
18 °C 10 km+ - 130° 130° 12 kt METAR FMEE 100200Z AUTO 13012KT 9999 FEW044/// 18/12 Q1023 BECMG 13015G30KT
05:30
V
19 °C 10 km+ - 140° 140° 13 kt METAR FMEE 100130Z AUTO 14013KT 9999 NCD 19/11 Q1022 BECMG 13015G30KT
05:00
V
19 °C 10 km+ - 140° 140° 14 kt METAR FMEE 100100Z AUTO 14014KT 9999 NCD 19/12 Q1022 BECMG 13015G30KT
04:30
V
19 °C 10 km+ - 140° 140° 13 kt METAR FMEE 100030Z AUTO 14013KT 9999 NCD 19/12 Q1022 BECMG 13015G30KT
04:00
V
19 °C 10 km+ - 140° 140° 14 kt METAR FMEE 100000Z AUTO 14014KT 9999 FEW041/// 19/12 Q1022 BECMG 13015G30KT
03:30
V
19 °C 10 km+ - 130° 130° 11 kt METAR FMEE 092330Z AUTO 13011KT 9999 NCD 19/12 Q1022 BECMG 13018G28KT
03:00
V
19 °C 10 km+ - 140° 140° 15 kt METAR FMEE 092300Z AUTO 14015KT 9999 NCD 19/12 Q1022 BECMG 13018G28KT
02:30
V
19 °C 10 km+ - 120° 120° 14 kt METAR FMEE 092230Z AUTO 12014KT 9999 NCD 19/11 Q1022 BECMG 13018G28KT
02:00
V
19 °C 10 km+ - 120° 120° 14 kt METAR FMEE 092200Z AUTO 12014KT 9999 NCD 19/11 Q1022 BECMG 13018G28KT
01:30
V
19 °C 10 km+ - 120° 120° 17 kt METAR FMEE 092130Z AUTO 12017KT 9999 FEW042/// 19/12 Q1023 BECMG 13018G28KT
01:00
V
20 °C 10 km+ 4,100 ft 140° 140° 19 kt METAR FMEE 092100Z AUTO 14019KT 9999 BKN041/// 20/12 Q1023 BECMG 13018G28KT
00:30
V
19 °C 10 km+ 3,900 ft 130° 130° 15 kt METAR FMEE 092030Z AUTO 13015KT 9999 BKN039/// 19/12 Q1022 BECMG 13018G28KT
00:00
V
19 °C 10 km+ - 130° 130° 16 kt METAR FMEE 092000Z AUTO 13016KT 9999 FEW039/// 19/12 Q1022 BECMG 13018G28KT

August 9, 2022

Time Code Weather Temp. Visibility Ceiling Wind METAR/SPECI
23:30
V
20 °C 10 km+ 3,600 ft 130° 130° 18 - 29 kt METAR FMEE 091930Z AUTO 13018G29KT 9999 BKN036/// 20/13 Q1023 NOSIG
23:00
V
20 °C 10 km+ 3,500 ft 140° 140° 13 kt METAR FMEE 091900Z AUTO 14013KT 9999 BKN035/// 20/13 Q1022 BECMG 13018G28KT
22:30
V
19 °C 10 km+ - 120° 120° 10 kt METAR FMEE 091830Z AUTO 12010KT 9999 SCT038/// 19/14 Q1022 BECMG 13018G28KT
22:00
V
19 °C 10 km+ 3,700 ft 130° 130° 10 kt METAR FMEE 091800Z AUTO 13010KT 9999 BKN037/// 19/15 Q1022 BECMG 13018G28KT
21:30
V
19 °C 10 km+ - 130° 130° 8 kt METAR FMEE 091730Z AUTO 13008KT 9999 NCD 19/15 Q1022 BECMG 13016G27KT
21:00
V
20 °C 10 km+ - 130° 130° 8 kt METAR FMEE 091700Z AUTO 13008KT 9999 NCD 20/15 Q1022 BECMG 13016G27KT
20:30
V
20 °C 10 km+ - 130° 130° 13 kt METAR FMEE 091630Z AUTO 13013KT 9999 NCD 20/15 Q1022 BECMG 13016G27KT
20:00
V
20 °C 10 km+ - 120° 120° 12 kt METAR FMEE 091600Z AUTO 12012KT 9999 FEW034/// 20/15 Q1022 BECMG 13016G27KT
19:30
V
20 °C 10 km+ 14,000 ft 120° 120° 13 kt METAR FMEE 091530Z AUTO 12013KT 9999 FEW032/// SCT045/// BKN140/// 20/15 Q1022 BECMG 13016G27KT
19:00
V
21 °C 10 km+ 4,300 ft 130° 130° 15 kt METAR FMEE 091500Z AUTO 13015KT 9999 BKN043/// 21/16 Q1022 BECMG 13016G27KT
18:30
V
21 °C 10 km+ 5,000 ft 120° 120° 17 - 29 kt METAR FMEE 091430Z AUTO 12017G29KT 9999 FEW036/// BKN050/// 21/16 Q1021 NOSIG
18:00
V
21 °C 10 km+ 5,000 ft 110° 110° 13 kt METAR FMEE 091400Z AUTO 11013KT 9999 FEW040/// BKN050/// 21/16 Q1021 BECMG 13016G27KT
17:30
V
22 °C 10 km+ 3,200 ft 130° 130° 15 kt METAR FMEE 091330Z AUTO 13015KT 9999 BKN032/// BKN042/// OVC050/// 22/16 Q1021 BECMG 13016G27KT
17:00
V
22 °C 10 km+ 3,100 ft 140° 140° 15 kt METAR FMEE 091300Z AUTO 14015KT 9999 OVC031/// 22/16 Q1021 BECMG 13016G27KT
16:30
V
22 °C 10 km+ 5,400 ft 140° 140° 17 - 27 kt METAR FMEE 091230Z AUTO 14017G27KT 9999 SCT033/// SCT043/// OVC054/// 22/16 Q1021 TEMPO 12022G37KT
16:00
V
23 °C 10 km+ 4,200 ft 140° 140° 19 - 30 kt METAR FMEE 091200Z AUTO 14019G30KT 9999 SCT036/// BKN042/// BKN048/// 23/17 Q1020 NOSIG
15:30
V
24 °C 10 km+ 3,600 ft 130° 130° 19 kt METAR FMEE 091130Z AUTO 13019KT 9999 BKN036/// OVC048/// 24/17 Q1020 BECMG 10018G31KT
15:00
V
24 °C 10 km+ 3,300 ft 130° 130° 18 kt METAR FMEE 091100Z AUTO 13018KT 9999 BKN033/// BKN043/// BKN060/// 24/17 Q1020 BECMG 10018G31KT
14:30
V
24 °C 10 km+ 4,500 ft 130° 130° 18 kt METAR FMEE 091030Z AUTO 13018KT 9999 FEW030/// SCT038/// BKN045/// 24/18 Q1020 BECMG 10018G31KT
14:00
V
24 °C 10 km+ 5,000 ft 120° 120° 19 kt METAR FMEE 091000Z AUTO 12019KT 9999 FEW030/// OVC050/// 24/18 Q1020 BECMG 10018G31KT
13:30
V
25 °C 10 km+ 4,700 ft 130° 130° 20 kt METAR FMEE 090930Z AUTO 13020KT 9999 BKN047/// BKN056/// 25/18 Q1021 BECMG 10018G31KT
13:00
V
25 °C 10 km+ 5,200 ft 120° 120° 17 kt METAR FMEE 090900Z AUTO 12017KT 9999 OVC052/// 25/17 Q1021 BECMG 10018G31KT
12:30
V
25 °C 10 km+ 5,600 ft 120° 120° 17 kt METAR FMEE 090830Z AUTO 12017KT 9999 SCT046/// BKN056/// 25/17 Q1021 BECMG 10018G31KT
12:00
V
26 °C 10 km+ 5,000 ft 120° 120° 17 kt METAR FMEE 090800Z AUTO 12017KT 9999 FEW041/// BKN050/// 26/17 Q1022 BECMG 10018G31KT
11:30
V
25 °C 10 km+ - 120° 120° 19 kt METAR FMEE 090730Z AUTO 12019KT 9999 FEW042/// 25/17 Q1022 BECMG 10018G31KT
11:00
V
24 °C 10 km+ - 120° 120° 20 kt METAR FMEE 090700Z AUTO 12020KT 9999 SCT044/// 24/17 Q1022 BECMG 10018G31KT
10:30
V
25 °C 10 km+ - 130° 130° 15 kt METAR FMEE 090630Z AUTO 13015KT 100V170 9999 FEW038/// SCT050/// 25/17 Q1022 BECMG 10018G31KT
10:00
V
25 °C 10 km+ 4,100 ft 130° 130° 9 kt METAR FMEE 090600Z AUTO 13009KT 070V160 9999 BKN041/// BKN052/// 25/17 Q1023 BECMG 12020G35KT
09:30
V
25 °C 10 km+ - Var Var 3 kt METAR FMEE 090530Z AUTO VRB03KT 9999 NCD 25/15 Q1023 BECMG 12020G35KT
09:00
V
24 °C 10 km+ - Var Var 3 kt METAR FMEE 090500Z AUTO VRB03KT 9999 NCD 24/15 Q1023 BECMG 12020G35KT
08:30
V
22 °C 10 km+ - Var Var 2 kt METAR FMEE 090430Z AUTO VRB02KT 9999 NCD 22/16 Q1022 BECMG 12020G35KT
08:00
V
20 °C 10 km+ - 190° 190° 3 kt METAR FMEE 090400Z AUTO 19003KT 080V230 9999 FEW050/// 20/16 Q1022 BECMG 12020G35KT
07:30
V
17 °C 10 km+ - 200° 200° 4 kt METAR FMEE 090330Z AUTO 20004KT 170V230 9999 NCD 17/15 Q1022 BECMG 12020G35KT
07:00
V
17 °C 10 km+ - 180° 180° 9 kt METAR FMEE 090300Z AUTO 18009KT 9999 NCD 17/14 Q1022 NOSIG
06:30
V
16 °C 10 km+ - 210° 210° 6 kt METAR FMEE 090230Z AUTO 21006KT 9999 NCD 16/14 Q1021 NOSIG
06:00
V
16 °C 10 km+ - 190° 190° 7 kt METAR FMEE 090200Z AUTO 19007KT 9999 NCD 16/15 Q1021 NOSIG
05:30
V
16 °C 10 km+ - 180° 180° 6 kt METAR FMEE 090130Z AUTO 18006KT 9999 NCD 16/15 Q1021 NOSIG
05:00
V
17 °C 10 km+ - 180° 180° 6 kt METAR FMEE 090100Z AUTO 18006KT 9999 NCD 17/15 Q1021 NOSIG
04:30
V
17 °C 10 km+ - 190° 190° 6 kt METAR FMEE 090030Z AUTO 19006KT 9999 NCD 17/15 Q1021 NOSIG
04:00
V
17 °C 10 km+ - 140° 140° 8 kt METAR FMEE 090000Z AUTO 14008KT 100V190 9999 NCD 17/15 Q1021 NOSIG
03:30
V
18 °C 10 km+ - 190° 190° 5 kt METAR FMEE 082330Z AUTO 19005KT 9999 FEW043/// 18/15 Q1021 NOSIG
03:00
V
17 °C 10 km+ - 170° 170° 6 kt METAR FMEE 082300Z AUTO 17006KT 9999 FEW043/// 17/16 Q1021 NOSIG
02:30
V
17 °C 10 km+ - 180° 180° 5 kt METAR FMEE 082230Z AUTO 18005KT 140V210 9999 FEW039/// 17/16 Q1022 NOSIG
02:00
V
18 °C 10 km+ - 140° 140° 7 kt METAR FMEE 082200Z AUTO 14007KT 9999 FEW040/// 18/16 Q1022 NOSIG
01:30
V
18 °C 10 km+ - 200° 200° 3 kt METAR FMEE 082130Z AUTO 20003KT 9999 FEW045/// 18/17 Q1022 NOSIG
01:00
V
19 °C 10 km+ 4,600 ft 150° 150° 5 kt METAR FMEE 082100Z AUTO 15005KT 9999 OVC046/// 19/16 Q1022 NOSIG
00:30
V
19 °C 10 km+ 4,600 ft 190° 190° 7 kt METAR FMEE 082030Z AUTO 19007KT 9999 FEW033/// OVC046/// 19/17 Q1022 NOSIG
00:00
V
19 °C 10 km+ 3,400 ft 190° 190° 4 kt METAR FMEE 082000Z AUTO 19004KT 9999 BKN034/// OVC046/// 19/17 Q1022 NOSIG

August 8, 2022

Time Code Weather Temp. Visibility Ceiling Wind METAR/SPECI
23:30
V
19 °C 10 km+ 4,400 ft 200° 200° 3 kt METAR FMEE 081930Z AUTO 20003KT 9999 FEW034/// OVC044/// 19/17 Q1022 NOSIG
23:00
V
19 °C 10 km+ 4,200 ft 190° 190° 5 kt METAR FMEE 081900Z AUTO 19005KT 9999 OVC042/// 19/17 Q1022 NOSIG
22:30
V
19 °C 10 km+ 4,200 ft 160° 160° 4 kt METAR FMEE 081830Z AUTO 16004KT 9999 OVC042/// 19/17 Q1022 NOSIG
22:00
V
18 °C 10 km+ 4,200 ft 190° 190° 5 kt METAR FMEE 081800Z AUTO 19005KT 9999 BKN042/// 18/17 Q1022 NOSIG
21:30
V
18 °C 10 km+ - 210° 210° 5 kt METAR FMEE 081730Z AUTO 21005KT 9999 FEW043/// 18/17 Q1022 BECMG 15010KT
21:00
V
19 °C 10 km+ - 180° 180° 6 kt METAR FMEE 081700Z AUTO 18006KT 9999 NCD 19/17 Q1022 NOSIG
20:30
V
20 °C 10 km+ - 150° 150° 3 kt METAR FMEE 081630Z AUTO 15003KT 090V200 9999 NCD 20/18 Q1022 NOSIG
20:00
V
20 °C 10 km+ - 200° 200° 6 kt METAR FMEE 081600Z AUTO 20006KT 9999 FEW036/// 20/18 Q1022 NOSIG
19:30
V
21 °C 10 km+ 3,700 ft 090° 090° 7 kt METAR FMEE 081530Z AUTO 09007KT 060V160 9999 FEW025/// SCT031/// OVC037/// 21/19 Q1021 NOSIG
19:00
M
21 °C 10 km+ 2,500 ft 230° 230° 2 kt METAR FMEE 081500Z AUTO 23002KT 9999 BKN025/// BKN031/// BKN038/// 21/18 Q1021 NOSIG
Older data

We and third parties follow your internet behavior on our website with cookies. If you continue, we assume you agree with our cookie policy. Learn more